Time;durP1;ratioP1;P1;durP2;ratioP2;P2;SDS_P1;SDS_P2;PMS_P1;PMS_P2;Temp;Humidity;BMP_temperature;BMP_pressure;BME280_temperature;BME280_humidity;BME280_pressure;Samples;Min_cycle;Max_cycle;Signal;HPM_P1;HPM_P2
2022/08/10 00:00:19;;;;;;;2.00;1.80;;;;;;;;;;105577;1296;25232;-23
2022/08/10 00:02:46;;;;;;;2.80;2.00;;;;;;;;;;104870;1299;1003124;-24
2022/08/10 00:05:11;;;;;;;5.10;2.20;;;;;;;;;;105594;1298;25232;-24
2022/08/10 00:07:36;;;;;;;2.00;1.60;;;;;;;;;;105350;1299;25234;-25
2022/08/10 00:10:02;;;;;;;3.50;2.50;;;;;;;;;;105300;1301;25369;-28
2022/08/10 00:12:28;;;;;;;2.00;1.80;;;;;;;;;;105594;1296;25234;-27
2022/08/10 00:14:54;;;;;;;3.60;2.60;;;;;;;;;;105521;1296;26475;-24
2022/08/10 00:17:19;;;;;;;2.30;1.90;;;;;;;;;;105534;1296;25246;-25
2022/08/10 00:19:44;;;;;;;11.00;1.70;;;;;;;;;;105507;1296;25237;-28
2022/08/10 00:22:10;;;;;;;2.10;1.60;;;;;;;;;;105540;1296;25437;-24
2022/08/10 00:24:36;;;;;;;5.40;1.70;;;;;;;;;;105475;1296;25228;-27
2022/08/10 00:27:01;;;;;;;4.50;2.60;;;;;;;;;;105425;1299;26573;-24
2022/08/10 00:29:27;;;;;;;2.60;2.40;;;;;;;;;;105603;1298;25238;-24
2022/08/10 00:31:52;;;;;;;2.50;2.20;;;;;;;;;;105555;1299;26477;-25
2022/08/10 00:34:18;;;;;;;2.00;1.50;;;;;;;;;;105582;1296;25305;-24
2022/08/10 00:36:43;;;;;;;9.70;2.40;;;;;;;;;;105555;1303;25337;-24
2022/08/10 00:39:09;;;;;;;3.30;2.40;;;;;;;;;;105612;1296;25207;-26
2022/08/10 00:41:34;;;;;;;2.60;2.30;;;;;;;;;;105539;1296;25197;-24
2022/08/10 00:43:59;;;;;;;3.90;3.10;;;;;;;;;;105503;1303;25232;-28
2022/08/10 00:46:25;;;;;;;5.40;2.70;;;;;;;;;;105564;1296;25199;-24
2022/08/10 00:48:50;;;;;;;3.50;3.00;;;;;;;;;;105571;1296;25206;-30
2022/08/10 00:51:16;;;;;;;4.40;2.90;;;;;;;;;;105538;1303;25205;-29
2022/08/10 00:53:41;;;;;;;4.50;3.30;;;;;;;;;;105635;1289;23246;-28
2022/08/10 00:56:07;;;;;;;3.50;3.00;;;;;;;;;;105565;1296;26453;-28
2022/08/10 00:58:33;;;;;;;4.50;2.80;;;;;;;;;;105438;1299;25350;-28
2022/08/10 01:00:58;;;;;;;3.00;2.50;;;;;;;;;;105582;1296;25325;-25
2022/08/10 01:03:24;;;;;;;5.30;3.50;;;;;;;;;;105589;1296;25234;-24
2022/08/10 01:05:54;;;;;;;5.00;4.20;;;;;;;;;;105566;1296;25234;-28
2022/08/10 01:08:21;;;;;;;4.90;3.80;;;;;;;;;;105651;1303;25197;-27
2022/08/10 01:10:50;;;;;;;4.50;3.90;;;;;;;;;;105632;1296;25359;-29
2022/08/10 01:13:19;;;;;;;11.30;3.70;;;;;;;;;;105655;1297;25286;-26
2022/08/10 01:15:50;;;;;;;3.60;3.00;;;;;;;;;;105553;1303;25188;-30
2022/08/10 01:18:19;;;;;;;3.00;2.20;;;;;;;;;;105586;1298;25205;-30
2022/08/10 01:20:50;;;;;;;3.60;3.20;;;;;;;;;;105630;1298;25263;-24
2022/08/10 01:23:17;;;;;;;5.90;3.90;;;;;;;;;;105632;1303;25197;-28
2022/08/10 01:25:46;;;;;;;6.80;3.00;;;;;;;;;;105518;1298;25327;-28
2022/08/10 01:28:15;;;;;;;7.80;3.80;;;;;;;;;;105644;1296;25191;-28
2022/08/10 01:30:41;;;;;;;2.30;1.60;;;;;;;;;;105549;1303;25347;-27
2022/08/10 01:33:09;;;;;;;3.50;2.60;;;;;;;;;;105542;1296;25204;-29
2022/08/10 01:35:38;;;;;;;2.60;2.40;;;;;;;;;;105652;1298;26581;-29
2022/08/10 01:38:05;;;;;;;4.70;2.40;;;;;;;;;;105552;1296;25362;-29
2022/08/10 01:40:31;;;;;;;4.10;1.80;;;;;;;;;;105560;1283;25200;-29
2022/08/10 01:42:57;;;;;;;7.30;3.40;;;;;;;;;;105656;1298;25356;-27
2022/08/10 01:45:23;;;;;;;4.10;3.80;;;;;;;;;;105607;1296;26526;-26
2022/08/10 01:50:20;;;;;;;3.90;2.70;;;;;;;;;;105434;1303;26461;-28
2022/08/10 01:52:45;;;;;;;5.40;2.90;;;;;;;;;;105610;1298;26474;-26
2022/08/10 01:55:11;;;;;;;4.40;3.60;;;;;;;;;;105557;1303;25193;-28
2022/08/10 01:57:37;;;;;;;5.80;3.30;;;;;;;;;;105565;1303;22706;-25
2022/08/10 02:00:03;;;;;;;4.70;4.00;;;;;;;;;;105573;1296;25345;-29
2022/08/10 02:02:28;;;;;;;5.50;4.20;;;;;;;;;;105563;1298;22983;-24
2022/08/10 02:04:54;;;;;;;10.10;4.20;;;;;;;;;;105583;1296;25195;-25
2022/08/10 02:07:20;;;;;;;7.00;5.00;;;;;;;;;;105577;1296;25270;-24
2022/08/10 02:09:47;;;;;;;9.00;4.20;;;;;;;;;;105547;1296;25237;-28
2022/08/10 02:12:13;;;;;;;7.40;4.90;;;;;;;;;;105471;1304;22516;-23
2022/08/10 02:14:39;;;;;;;5.80;3.60;;;;;;;;;;105597;1299;26535;-25
2022/08/10 02:17:05;;;;;;;5.10;4.20;;;;;;;;;;105577;1298;25135;-28
2022/08/10 02:19:31;;;;;;;6.20;4.40;;;;;;;;;;105627;1303;25272;-29
2022/08/10 02:21:57;;;;;;;7.70;4.90;;;;;;;;;;105604;1298;25276;-25
2022/08/10 02:24:22;;;;;;;9.70;5.60;;;;;;;;;;105582;1296;26493;-28
2022/08/10 02:26:48;;;;;;;9.40;5.60;;;;;;;;;;105563;1296;23895;-25
2022/08/10 02:29:14;;;;;;;7.20;4.60;;;;;;;;;;105654;1303;25205;-24
2022/08/10 02:31:40;;;;;;;7.70;5.00;;;;;;;;;;105613;1299;25384;-28
2022/08/10 02:34:07;;;;;;;7.50;6.00;;;;;;;;;;105553;1298;25191;-27
2022/08/10 02:36:33;;;;;;;8.20;6.30;;;;;;;;;;105580;1299;25242;-28
2022/08/10 02:38:59;;;;;;;11.10;6.30;;;;;;;;;;105539;1298;26615;-24
2022/08/10 02:41:28;;;;;;;8.90;7.10;;;;;;;;;;105572;1298;25208;-24
2022/08/10 02:43:55;;;;;;;10.90;7.00;;;;;;;;;;105551;1296;25247;-28
2022/08/10 02:46:24;;;;;;;9.80;6.10;;;;;;;;;;105540;1299;25315;-27
2022/08/10 02:48:56;;;;;;;5.60;4.60;;;;;;;;;;105110;1303;22533;-24
2022/08/10 02:51:23;;;;;;;7.20;4.60;;;;;;;;;;105653;1299;25257;-24
2022/08/10 02:53:50;;;;;;;3.90;3.30;;;;;;;;;;105348;1298;25276;-30
2022/08/10 02:56:19;;;;;;;4.10;3.10;;;;;;;;;;105585;1298;25350;-28
2022/08/10 02:58:46;;;;;;;3.40;3.00;;;;;;;;;;105614;1298;25209;-29
2022/08/10 03:01:13;;;;;;;5.90;5.30;;;;;;;;;;105553;1299;23873;-24
2022/08/10 03:03:42;;;;;;;8.50;5.60;;;;;;;;;;105582;1299;25309;-26
2022/08/10 03:06:08;;;;;;;7.20;5.30;;;;;;;;;;105624;1298;25315;-23
2022/08/10 03:08:35;;;;;;;8.60;4.00;;;;;;;;;;105657;1298;25238;-27
2022/08/10 03:11:01;;;;;;;5.40;4.60;;;;;;;;;;105585;1296;25184;-23
2022/08/10 03:13:26;;;;;;;7.90;5.60;;;;;;;;;;105544;1296;25286;-24
2022/08/10 03:15:52;;;;;;;9.20;4.40;;;;;;;;;;105514;1296;25241;-30
2022/08/10 03:18:17;;;;;;;8.00;4.80;;;;;;;;;;105564;1296;25235;-24
2022/08/10 03:20:43;;;;;;;5.10;4.20;;;;;;;;;;105512;1296;22776;-27
2022/08/10 03:23:10;;;;;;;5.50;4.30;;;;;;;;;;105259;1303;25160;-29
2022/08/10 03:25:36;;;;;;;7.20;5.10;;;;;;;;;;105618;1296;24273;-26
2022/08/10 03:28:02;;;;;;;7.10;5.80;;;;;;;;;;105624;1299;25306;-25
2022/08/10 03:30:27;;;;;;;5.90;5.10;;;;;;;;;;105552;1296;25280;-30
2022/08/10 03:32:52;;;;;;;7.30;6.10;;;;;;;;;;105567;1296;25199;-30
2022/08/10 03:35:19;;;;;;;6.50;5.60;;;;;;;;;;105565;1296;25206;-28
2022/08/10 03:37:44;;;;;;;8.10;6.00;;;;;;;;;;105582;1296;25362;-28
2022/08/10 03:40:10;;;;;;;4.50;3.90;;;;;;;;;;105565;1296;25277;-23
2022/08/10 03:42:36;;;;;;;6.40;5.60;;;;;;;;;;105564;1296;25177;-30
2022/08/10 03:45:02;;;;;;;7.10;4.50;;;;;;;;;;105594;1298;25229;-27
2022/08/10 03:47:28;;;;;;;9.10;6.00;;;;;;;;;;105505;1298;25202;-27
2022/08/10 03:49:53;;;;;;;7.20;4.80;;;;;;;;;;105557;1299;25207;-28
2022/08/10 03:52:19;;;;;;;8.90;5.30;;;;;;;;;;105601;1303;25291;-25
2022/08/10 03:54:44;;;;;;;8.90;6.20;;;;;;;;;;104862;1296;1003037;-24
2022/08/10 03:57:10;;;;;;;7.60;4.10;;;;;;;;;;105408;1303;25307;-24
2022/08/10 03:59:35;;;;;;;6.50;5.70;;;;;;;;;;105543;1296;25346;-24
2022/08/10 04:02:02;;;;;;;12.60;6.30;;;;;;;;;;105511;1303;25228;-24
2022/08/10 04:04:28;;;;;;;5.00;4.30;;;;;;;;;;105642;1298;25204;-25
2022/08/10 04:06:55;;;;;;;10.30;7.60;;;;;;;;;;105640;1296;25205;-24
2022/08/10 04:09:21;;;;;;;9.40;6.90;;;;;;;;;;105581;1298;25203;-28
2022/08/10 04:11:47;;;;;;;15.40;5.80;;;;;;;;;;105582;1296;25441;-28
2022/08/10 04:14:13;;;;;;;7.80;6.10;;;;;;;;;;105554;1296;25197;-25
2022/08/10 04:16:39;;;;;;;7.10;5.80;;;;;;;;;;105634;1296;25196;-28
2022/08/10 04:19:04;;;;;;;8.30;5.70;;;;;;;;;;105530;1296;25205;-28
2022/08/10 04:21:30;;;;;;;6.00;4.80;;;;;;;;;;105532;1296;25291;-25
2022/08/10 04:23:57;;;;;;;5.20;4.10;;;;;;;;;;105566;1299;25308;-22
2022/08/10 04:26:22;;;;;;;9.20;5.20;;;;;;;;;;105582;1296;26455;-24
2022/08/10 04:28:48;;;;;;;8.80;6.40;;;;;;;;;;105603;1296;25200;-28
2022/08/10 04:31:14;;;;;;;6.70;5.70;;;;;;;;;;105571;1296;25196;-28
2022/08/10 04:33:41;;;;;;;6.70;4.20;;;;;;;;;;105534;1298;25199;-24
2022/08/10 04:36:07;;;;;;;7.20;5.20;;;;;;;;;;105597;1299;22497;-30
2022/08/10 04:38:32;;;;;;;9.00;4.50;;;;;;;;;;105589;1299;25253;-28
2022/08/10 04:40:58;;;;;;;8.10;5.50;;;;;;;;;;105589;1303;25235;-25
2022/08/10 04:43:23;;;;;;;8.30;4.10;;;;;;;;;;105603;1299;26485;-25
2022/08/10 04:45:49;;;;;;;6.10;4.30;;;;;;;;;;105604;1303;25324;-25
2022/08/10 04:48:15;;;;;;;4.50;3.50;;;;;;;;;;105443;1303;25359;-28
2022/08/10 04:50:40;;;;;;;6.30;5.60;;;;;;;;;;105550;1299;25320;-28
2022/08/10 04:53:06;;;;;;;4.50;3.90;;;;;;;;;;105581;1296;25225;-26
2022/08/10 04:55:31;;;;;;;12.20;5.80;;;;;;;;;;105587;1295;25266;-25
2022/08/10 04:57:57;;;;;;;8.20;6.00;;;;;;;;;;105159;1303;22672;-25
2022/08/10 05:00:22;;;;;;;7.90;6.20;;;;;;;;;;105551;1303;25337;-25
2022/08/10 05:02:48;;;;;;;4.70;3.90;;;;;;;;;;105539;1296;25334;-29
2022/08/10 05:05:13;;;;;;;6.60;5.60;;;;;;;;;;105619;1296;25200;-28
2022/08/10 05:07:38;;;;;;;9.50;5.00;;;;;;;;;;105584;1298;22526;-28
2022/08/10 05:10:04;;;;;;;7.50;5.10;;;;;;;;;;105557;1296;22506;-29
2022/08/10 05:12:30;;;;;;;9.70;6.20;;;;;;;;;;105571;1299;23975;-24
2022/08/10 05:14:55;;;;;;;6.20;5.00;;;;;;;;;;105568;1296;25213;-28
2022/08/10 05:17:21;;;;;;;5.80;5.10;;;;;;;;;;105590;1296;25228;-25
2022/08/10 05:19:47;;;;;;;7.60;6.10;;;;;;;;;;105589;1297;25350;-25
2022/08/10 05:22:12;;;;;;;6.50;5.40;;;;;;;;;;105586;1296;25350;-26
2022/08/10 05:24:38;;;;;;;8.10;6.10;;;;;;;;;;105597;1303;22512;-24
2022/08/10 05:27:03;;;;;;;10.50;7.50;;;;;;;;;;105537;1289;25247;-25
2022/08/10 05:29:29;;;;;;;11.20;6.20;;;;;;;;;;105576;1296;25312;-28
2022/08/10 05:31:54;;;;;;;7.80;5.30;;;;;;;;;;105553;1296;25181;-28
2022/08/10 05:34:25;;;;;;;6.40;4.80;;;;;;;;;;105593;1303;25202;-25
2022/08/10 05:36:52;;;;;;;5.30;4.60;;;;;;;;;;105598;1296;25253;-29
2022/08/10 05:39:18;;;;;;;6.50;5.70;;;;;;;;;;105536;1303;25351;-29
2022/08/10 05:41:44;;;;;;;7.50;6.00;;;;;;;;;;105543;1303;25435;-29
2022/08/10 05:44:09;;;;;;;6.40;4.00;;;;;;;;;;105614;1296;25222;-27
2022/08/10 05:46:35;;;;;;;5.10;4.60;;;;;;;;;;105629;1296;25200;-28
2022/08/10 05:49:00;;;;;;;6.70;5.30;;;;;;;;;;105558;1296;25423;-25
2022/08/10 05:51:26;;;;;;;11.00;4.10;;;;;;;;;;105206;1295;496323;-28
2022/08/10 05:53:51;;;;;;;4.10;3.70;;;;;;;;;;105568;1298;26552;-29
2022/08/10 05:56:17;;;;;;;4.80;3.30;;;;;;;;;;105588;1296;25209;-28
2022/08/10 05:58:42;;;;;;;3.70;3.00;;;;;;;;;;105572;1303;25184;-25
2022/08/10 06:01:10;;;;;;;7.00;4.20;;;;;;;;;;105587;1296;25350;-28
2022/08/10 06:03:36;;;;;;;4.00;3.70;;;;;;;;;;105585;1296;23924;-29
2022/08/10 06:06:02;;;;;;;7.00;4.40;;;;;;;;;;105532;1296;25250;-29
2022/08/10 06:08:29;;;;;;;5.90;4.70;;;;;;;;;;105586;1296;25207;-25
2022/08/10 06:10:54;;;;;;;7.50;3.20;;;;;;;;;;105628;1296;25200;-26
2022/08/10 06:15:49;;;;;;;9.30;4.40;;;;;;;;;;105579;1283;23926;-25
2022/08/10 06:18:15;;;;;;;16.40;4.50;;;;;;;;;;105420;1304;26444;-25
2022/08/10 06:20:41;;;;;;;10.20;4.80;;;;;;;;;;105435;1303;26466;-29
2022/08/10 06:23:06;;;;;;;10.70;4.40;;;;;;;;;;105644;1298;25352;-28
2022/08/10 06:25:32;;;;;;;5.10;4.00;;;;;;;;;;105543;1296;25238;-25
2022/08/10 06:27:58;;;;;;;11.00;5.10;;;;;;;;;;105345;1303;25320;-30
2022/08/10 06:30:23;;;;;;;5.80;2.80;;;;;;;;;;105598;1303;25197;-29
2022/08/10 06:32:49;;;;;;;4.70;3.90;;;;;;;;;;105578;1296;25209;-29
2022/08/10 06:35:14;;;;;;;7.50;3.60;;;;;;;;;;105448;1303;25353;-31
2022/08/10 06:37:41;;;;;;;6.20;4.90;;;;;;;;;;104883;1296;1003642;-27
2022/08/10 06:40:07;;;;;;;9.40;3.80;;;;;;;;;;105571;1303;25237;-26
2022/08/10 06:42:33;;;;;;;9.30;3.90;;;;;;;;;;105510;1303;25228;-28
2022/08/10 06:45:00;;;;;;;4.90;2.70;;;;;;;;;;105467;1303;23868;-25
2022/08/10 06:47:28;;;;;;;7.70;4.10;;;;;;;;;;105585;1299;25283;-24
2022/08/10 06:49:54;;;;;;;4.30;3.50;;;;;;;;;;105605;1298;25237;-29
2022/08/10 06:52:20;;;;;;;5.20;2.40;;;;;;;;;;105585;1298;25312;-25
2022/08/10 06:54:45;;;;;;;6.70;2.50;;;;;;;;;;105587;1303;25237;-28
2022/08/10 06:57:11;;;;;;;6.60;2.20;;;;;;;;;;105563;1296;25193;-29
2022/08/10 06:59:38;;;;;;;6.60;2.30;;;;;;;;;;105623;1296;25237;-25
2022/08/10 07:02:06;;;;;;;6.90;2.90;;;;;;;;;;105548;1298;25343;-24
2022/08/10 07:04:33;;;;;;;3.40;3.00;;;;;;;;;;105550;1299;25338;-24
2022/08/10 07:06:59;;;;;;;8.50;2.90;;;;;;;;;;105542;1303;22548;-28
2022/08/10 07:09:25;;;;;;;1.70;1.20;;;;;;;;;;105590;1298;25342;-25
2022/08/10 07:11:50;;;;;;;2.60;1.50;;;;;;;;;;105519;1296;25352;-30
2022/08/10 07:14:16;;;;;;;4.50;1.80;;;;;;;;;;105535;1299;26476;-28
2022/08/10 07:16:41;;;;;;;6.70;2.00;;;;;;;;;;105564;1299;25197;-30
2022/08/10 07:19:08;;;;;;;7.20;1.80;;;;;;;;;;105524;1296;24244;-25
2022/08/10 07:21:33;;;;;;;5.40;1.60;;;;;;;;;;105574;1298;25390;-30
2022/08/10 07:23:59;;;;;;;2.80;2.00;;;;;;;;;;105485;1296;25216;-28
2022/08/10 07:26:24;;;;;;;1.40;1.00;;;;;;;;;;105565;1303;25242;-28
2022/08/10 07:28:50;;;;;;;2.40;1.40;;;;;;;;;;105558;1296;26534;-29
2022/08/10 07:31:17;;;;;;;3.40;1.30;;;;;;;;;;105581;1296;25218;-25
2022/08/10 07:33:43;;;;;;;13.30;1.40;;;;;;;;;;104920;1297;1003257;-24
2022/08/10 07:36:09;;;;;;;3.20;1.90;;;;;;;;;;105442;1298;22881;-29
2022/08/10 07:38:37;;;;;;;1.60;1.30;;;;;;;;;;105604;1296;25263;-28
2022/08/10 07:41:02;;;;;;;5.70;2.00;;;;;;;;;;105485;1299;25196;-28
2022/08/10 07:43:31;;;;;;;5.40;0.90;;;;;;;;;;105574;1303;25256;-25
2022/08/10 07:45:57;;;;;;;2.50;1.20;;;;;;;;;;105557;1299;25197;-28
2022/08/10 07:48:24;;;;;;;2.30;1.50;;;;;;;;;;105582;1296;25241;-31
2022/08/10 07:50:50;;;;;;;2.60;1.40;;;;;;;;;;105537;1296;25197;-30
2022/08/10 07:53:16;;;;;;;7.20;1.30;;;;;;;;;;105555;1298;25209;-24
2022/08/10 07:55:43;;;;;;;8.60;1.60;;;;;;;;;;105604;1279;24218;-25
2022/08/10 07:58:09;;;;;;;2.30;1.50;;;;;;;;;;105603;1303;22530;-26
2022/08/10 08:00:34;;;;;;;2.70;1.40;;;;;;;;;;105583;1296;25231;-25
2022/08/10 08:03:00;;;;;;;2.40;1.10;;;;;;;;;;105584;1296;26475;-28
2022/08/10 08:05:26;;;;;;;4.10;1.50;;;;;;;;;;105629;1298;25201;-27
2022/08/10 08:07:52;;;;;;;6.40;2.00;;;;;;;;;;105200;1304;22517;-26
2022/08/10 08:10:18;;;;;;;3.30;1.40;;;;;;;;;;105597;1298;25219;-27
2022/08/10 08:12:44;;;;;;;1.70;1.50;;;;;;;;;;105586;1299;25194;-30
2022/08/10 08:15:11;;;;;;;2.50;1.40;;;;;;;;;;105531;1297;25223;-26
2022/08/10 08:17:37;;;;;;;1.50;0.90;;;;;;;;;;105484;1289;25200;-32
2022/08/10 08:20:03;;;;;;;4.20;1.10;;;;;;;;;;105396;1298;22533;-27
2022/08/10 08:22:29;;;;;;;1.00;0.80;;;;;;;;;;105566;1298;25212;-25
2022/08/10 08:24:55;;;;;;;2.30;1.10;;;;;;;;;;105551;1296;25345;-28
2022/08/10 08:27:20;;;;;;;1.50;0.90;;;;;;;;;;105606;1298;25389;-24
2022/08/10 08:29:46;;;;;;;4.00;1.40;;;;;;;;;;105577;1296;25660;-28
2022/08/10 08:32:12;;;;;;;1.50;0.80;;;;;;;;;;105586;1296;25223;-24
2022/08/10 08:34:38;;;;;;;2.30;1.30;;;;;;;;;;105610;1299;25368;-26
2022/08/10 08:37:04;;;;;;;3.60;1.10;;;;;;;;;;105574;1298;26522;-26
2022/08/10 08:39:31;;;;;;;3.10;1.80;;;;;;;;;;105552;1299;25199;-26
2022/08/10 08:42:02;;;;;;;2.00;1.70;;;;;;;;;;105577;1296;25238;-30
2022/08/10 08:44:32;;;;;;;2.00;1.00;;;;;;;;;;105572;1299;26549;-30
2022/08/10 08:47:01;;;;;;;1.70;1.00;;;;;;;;;;105638;1299;25196;-30
2022/08/10 08:49:30;;;;;;;2.10;1.10;;;;;;;;;;105621;1297;25242;-25
2022/08/10 08:51:59;;;;;;;2.90;1.70;;;;;;;;;;105554;1299;26607;-25
2022/08/10 08:54:34;;;;;;;1.70;1.20;;;;;;;;;;105628;1296;25190;-31
2022/08/10 08:57:03;;;;;;;1.40;1.10;;;;;;;;;;105582;1299;26578;-27
2022/08/10 08:59:29;;;;;;;2.00;1.30;;;;;;;;;;105566;1296;25301;-26
2022/08/10 09:01:57;;;;;;;2.40;0.90;;;;;;;;;;104626;1303;1003396;-26
2022/08/10 09:04:27;;;;;;;1.10;0.80;;;;;;;;;;105596;1303;25197;-29
2022/08/10 09:07:07;;;;;;;4.90;0.90;;;;;;;;;;105676;1296;25197;-25
2022/08/10 09:09:44;;;;;;;22.20;1.10;;;;;;;;;;105583;1296;26584;-31
2022/08/10 09:12:19;;;;;;;5.40;1.00;;;;;;;;;;105578;1296;26550;-25
2022/08/10 09:14:48;;;;;;;1.60;0.80;;;;;;;;;;105584;1296;25197;-24
2022/08/10 09:17:16;;;;;;;1.70;1.10;;;;;;;;;;105580;1296;25237;-26
2022/08/10 09:19:46;;;;;;;1.40;0.70;;;;;;;;;;105542;1299;25237;-27
2022/08/10 09:22:16;;;;;;;1.60;1.10;;;;;;;;;;105539;1296;25277;-24
2022/08/10 09:24:44;;;;;;;1.90;1.40;;;;;;;;;;105592;1297;25197;-26
2022/08/10 09:27:13;;;;;;;2.60;1.00;;;;;;;;;;105395;1299;25234;-27
2022/08/10 09:29:41;;;;;;;4.10;0.70;;;;;;;;;;105541;1299;25229;-25
2022/08/10 09:32:08;;;;;;;0.80;0.70;;;;;;;;;;105478;1297;25229;-27
2022/08/10 09:34:38;;;;;;;1.40;0.70;;;;;;;;;;105339;1303;25197;-27
2022/08/10 09:37:07;;;;;;;4.90;1.00;;;;;;;;;;105659;1296;25203;-28
2022/08/10 09:39:39;;;;;;;0.80;0.50;;;;;;;;;;105609;1298;25261;-24
2022/08/10 09:42:09;;;;;;;1.50;0.70;;;;;;;;;;105561;1298;25241;-28
2022/08/10 09:44:43;;;;;;;2.40;0.70;;;;;;;;;;105647;1298;25288;-30
2022/08/10 09:47:12;;;;;;;1.20;0.70;;;;;;;;;;105656;1298;25196;-28
2022/08/10 09:49:58;;;;;;;1.70;0.70;;;;;;;;;;105595;1298;25225;-28
2022/08/10 09:52:27;;;;;;;1.00;0.70;;;;;;;;;;105613;1296;25670;-30
2022/08/10 09:54:57;;;;;;;1.20;1.00;;;;;;;;;;105576;1303;23163;-28
2022/08/10 09:57:23;;;;;;;1.40;0.70;;;;;;;;;;105605;1296;26580;-26
2022/08/10 09:59:49;;;;;;;1.20;0.50;;;;;;;;;;105540;1298;26472;-29
2022/08/10 10:02:20;;;;;;;2.00;0.80;;;;;;;;;;105606;1296;25178;-29
2022/08/10 10:04:47;;;;;;;1.70;0.90;;;;;;;;;;105511;1299;25237;-24
2022/08/10 10:07:15;;;;;;;0.90;0.60;;;;;;;;;;105400;1282;26449;-30
2022/08/10 10:09:44;;;;;;;1.20;0.80;;;;;;;;;;105627;1299;23705;-25
2022/08/10 10:12:13;;;;;;;1.70;1.20;;;;;;;;;;105588;1303;26470;-30
2022/08/10 10:17:16;;;;;;;1.00;0.90;;;;;;;;;;105590;1296;25288;-25
2022/08/10 10:19:46;;;;;;;2.50;1.20;;;;;;;;;;105557;1296;25296;-24
2022/08/10 10:22:15;;;;;;;2.40;0.70;;;;;;;;;;105535;1299;25238;-28
2022/08/10 10:24:46;;;;;;;2.20;1.10;;;;;;;;;;105609;1296;25253;-26
2022/08/10 10:27:12;;;;;;;1.40;0.90;;;;;;;;;;105578;1283;25314;-30
2022/08/10 10:29:41;;;;;;;0.70;0.70;;;;;;;;;;105549;1296;25502;-30
2022/08/10 10:32:10;;;;;;;1.30;1.00;;;;;;;;;;105604;1296;25280;-26
2022/08/10 10:34:39;;;;;;;1.70;1.10;;;;;;;;;;105602;1296;25206;-28
2022/08/10 10:37:05;;;;;;;1.10;0.80;;;;;;;;;;105587;1302;25365;-26
2022/08/10 10:39:30;;;;;;;3.30;0.90;;;;;;;;;;105622;1299;25238;-26
2022/08/10 10:42:05;;;;;;;1.90;1.00;;;;;;;;;;105529;1296;25237;-25
2022/08/10 10:44:35;;;;;;;2.40;1.10;;;;;;;;;;105566;1303;25334;-31
2022/08/10 10:47:04;;;;;;;3.20;1.00;;;;;;;;;;105637;1283;25280;-28
2022/08/10 10:49:33;;;;;;;5.90;1.20;;;;;;;;;;105613;1303;25237;-30
2022/08/10 10:52:01;;;;;;;1.00;0.90;;;;;;;;;;105617;1298;25226;-24
2022/08/10 10:54:31;;;;;;;1.50;1.30;;;;;;;;;;105563;1286;26621;-24
2022/08/10 10:57:00;;;;;;;5.70;0.90;;;;;;;;;;105610;1296;25766;-30
2022/08/10 10:59:29;;;;;;;1.30;0.90;;;;;;;;;;105493;1303;24424;-25
2022/08/10 11:01:55;;;;;;;2.10;0.60;;;;;;;;;;105625;1299;25261;-25
2022/08/10 11:04:23;;;;;;;2.70;0.80;;;;;;;;;;105441;1299;25244;-29
2022/08/10 11:06:52;;;;;;;0.50;0.50;;;;;;;;;;105620;1298;25676;-29
2022/08/10 11:09:20;;;;;;;4.50;0.80;;;;;;;;;;105641;1299;24894;-29
2022/08/10 11:11:47;;;;;;;1.90;0.80;;;;;;;;;;105584;1299;25233;-25
2022/08/10 11:14:15;;;;;;;8.20;0.90;;;;;;;;;;105488;1298;25237;-25
2022/08/10 11:16:42;;;;;;;0.80;0.70;;;;;;;;;;105519;1299;25184;-25
2022/08/10 11:19:11;;;;;;;1.70;0.70;;;;;;;;;;105527;1296;25346;-25
2022/08/10 11:21:42;;;;;;;2.90;0.70;;;;;;;;;;105616;1303;25389;-27
2022/08/10 11:24:13;;;;;;;1.40;0.80;;;;;;;;;;105563;1298;25249;-28
2022/08/10 11:26:42;;;;;;;7.60;1.00;;;;;;;;;;105640;1296;24043;-24
2022/08/10 11:29:14;;;;;;;0.70;0.60;;;;;;;;;;105584;1296;25305;-30
2022/08/10 11:31:42;;;;;;;0.80;0.70;;;;;;;;;;105620;1296;26472;-25
2022/08/10 11:34:11;;;;;;;0.80;0.60;;;;;;;;;;105587;1303;24651;-25
2022/08/10 11:36:40;;;;;;;0.90;0.70;;;;;;;;;;105647;1299;25200;-25
2022/08/10 11:39:08;;;;;;;0.90;0.60;;;;;;;;;;105586;1296;25238;-25
2022/08/10 11:41:37;;;;;;;0.50;0.50;;;;;;;;;;105591;1298;25226;-29
2022/08/10 11:44:04;;;;;;;1.10;0.60;;;;;;;;;;105576;1296;25200;-25
2022/08/10 11:46:30;;;;;;;23.20;0.70;;;;;;;;;;105559;1303;25223;-26
2022/08/10 11:48:58;;;;;;;2.30;0.70;;;;;;;;;;104885;1299;1003849;-25
2022/08/10 11:51:25;;;;;;;1.40;0.60;;;;;;;;;;105537;1298;25238;-29
2022/08/10 11:53:56;;;;;;;3.10;0.70;;;;;;;;;;105582;1283;25206;-29
2022/08/10 11:56:24;;;;;;;0.60;0.60;;;;;;;;;;105442;1304;25371;-29
2022/08/10 12:01:19;;;;;;;1.80;0.90;;;;;;;;;;105590;1299;25252;-25
2022/08/10 12:03:45;;;;;;;1.00;0.70;;;;;;;;;;105585;1296;25178;-29
2022/08/10 12:06:12;;;;;;;2.20;0.70;;;;;;;;;;105559;1302;25203;-24
2022/08/10 12:08:38;;;;;;;0.60;0.50;;;;;;;;;;105550;1302;25303;-28
2022/08/10 12:11:03;;;;;;;0.90;0.70;;;;;;;;;;105602;1296;25200;-28
2022/08/10 12:13:35;;;;;;;0.60;0.50;;;;;;;;;;105536;1299;25241;-28
2022/08/10 12:16:01;;;;;;;0.40;0.30;;;;;;;;;;105684;1299;25299;-28
2022/08/10 12:18:30;;;;;;;3.20;0.80;;;;;;;;;;105540;1296;25292;-29
2022/08/10 12:20:57;;;;;;;9.20;0.70;;;;;;;;;;105556;1298;25238;-28
2022/08/10 12:23:25;;;;;;;0.90;0.60;;;;;;;;;;105531;1296;25264;-29
2022/08/10 12:25:53;;;;;;;2.60;0.50;;;;;;;;;;105561;1303;25440;-25
2022/08/10 12:28:21;;;;;;;3.60;0.50;;;;;;;;;;105576;1303;25242;-25
2022/08/10 12:30:48;;;;;;;0.50;0.50;;;;;;;;;;105571;1299;25237;-29
2022/08/10 12:33:17;;;;;;;2.10;0.60;;;;;;;;;;105607;1299;23001;-31
2022/08/10 12:35:45;;;;;;;1.00;0.90;;;;;;;;;;105593;1298;25238;-25
2022/08/10 12:38:14;;;;;;;3.00;0.60;;;;;;;;;;105597;1296;22989;-28
2022/08/10 12:40:42;;;;;;;0.90;0.50;;;;;;;;;;105638;1300;25324;-25
2022/08/10 12:43:11;;;;;;;4.90;1.00;;;;;;;;;;105514;1292;25185;-28
2022/08/10 12:45:39;;;;;;;2.70;1.20;;;;;;;;;;105533;1303;25203;-24
2022/08/10 12:48:08;;;;;;;2.40;0.90;;;;;;;;;;105573;1296;25287;-30
2022/08/10 12:50:34;;;;;;;6.10;0.70;;;;;;;;;;105559;1303;25240;-24
2022/08/10 12:53:01;;;;;;;2.60;0.50;;;;;;;;;;105647;1296;25209;-28
2022/08/10 12:55:27;;;;;;;2.70;0.90;;;;;;;;;;105608;1302;25238;-29
2022/08/10 12:57:54;;;;;;;0.70;0.50;;;;;;;;;;105560;1302;25305;-28
2022/08/10 13:00:24;;;;;;;3.50;1.00;;;;;;;;;;105536;1302;25293;-28
2022/08/10 13:02:49;;;;;;;0.60;0.50;;;;;;;;;;105557;1299;25234;-28
2022/08/10 13:05:15;;;;;;;5.10;0.60;;;;;;;;;;105504;1298;25291;-24
2022/08/10 13:07:42;;;;;;;1.10;0.50;;;;;;;;;;105554;1302;25247;-28
2022/08/10 13:10:09;;;;;;;0.70;0.60;;;;;;;;;;105564;1300;25293;-28
2022/08/10 13:12:35;;;;;;;1.30;0.60;;;;;;;;;;105563;1299;24245;-29
2022/08/10 13:15:04;;;;;;;0.90;0.80;;;;;;;;;;105549;1296;25297;-26
2022/08/10 13:17:31;;;;;;;0.70;0.70;;;;;;;;;;105612;1302;25281;-24
2022/08/10 13:19:56;;;;;;;1.20;0.70;;;;;;;;;;105519;1302;25253;-28
2022/08/10 13:22:22;;;;;;;0.80;0.60;;;;;;;;;;105582;1296;25420;-27
2022/08/10 13:24:48;;;;;;;1.80;0.70;;;;;;;;;;105645;1302;25219;-30
2022/08/10 13:27:14;;;;;;;0.80;0.60;;;;;;;;;;105603;1303;26471;-28
2022/08/10 13:29:41;;;;;;;0.80;0.50;;;;;;;;;;105554;1299;25200;-26
2022/08/10 13:32:07;;;;;;;5.20;0.60;;;;;;;;;;105655;1299;25197;-30
2022/08/10 13:34:34;;;;;;;0.60;0.50;;;;;;;;;;105387;1304;25206;-30
2022/08/10 13:37:00;;;;;;;1.70;0.70;;;;;;;;;;105497;1303;25292;-30
2022/08/10 13:39:35;;;;;;;1.20;1.10;;;;;;;;;;105549;1299;25200;-29
2022/08/10 13:42:01;;;;;;;1.70;0.60;;;;;;;;;;105586;1304;25350;-28
2022/08/10 13:44:29;;;;;;;2.10;0.70;;;;;;;;;;105574;1299;24223;-27
2022/08/10 13:46:56;;;;;;;3.40;1.20;;;;;;;;;;105590;1302;25201;-30
2022/08/10 13:49:21;;;;;;;0.80;0.50;;;;;;;;;;105584;1296;25199;-27
2022/08/10 13:51:47;;;;;;;1.50;0.60;;;;;;;;;;105182;1296;565220;-29
2022/08/10 13:54:13;;;;;;;5.20;0.50;;;;;;;;;;105603;1299;25229;-28
2022/08/10 13:56:40;;;;;;;5.50;0.50;;;;;;;;;;105633;1302;25226;-28
2022/08/10 13:59:06;;;;;;;1.00;0.60;;;;;;;;;;105585;1303;25330;-28
2022/08/10 14:01:32;;;;;;;0.90;0.50;;;;;;;;;;105512;1296;22533;-25
2022/08/10 14:03:59;;;;;;;1.00;0.40;;;;;;;;;;105571;1296;25232;-28
2022/08/10 14:06:25;;;;;;;1.60;0.70;;;;;;;;;;105558;1301;26531;-28
2022/08/10 14:08:52;;;;;;;0.80;0.70;;;;;;;;;;105576;1296;26373;-28
2022/08/10 14:11:18;;;;;;;1.20;0.40;;;;;;;;;;105539;1299;25305;-27
2022/08/10 14:13:45;;;;;;;1.60;0.80;;;;;;;;;;105511;1303;25238;-30
2022/08/10 14:16:10;;;;;;;1.80;0.60;;;;;;;;;;105555;1282;26480;-26
2022/08/10 14:18:36;;;;;;;0.50;0.40;;;;;;;;;;105596;1296;25347;-29
2022/08/10 14:21:03;;;;;;;1.20;0.40;;;;;;;;;;105692;1302;25241;-25
2022/08/10 14:23:30;;;;;;;0.40;0.30;;;;;;;;;;105629;1296;25241;-28
2022/08/10 14:25:58;;;;;;;6.00;0.50;;;;;;;;;;105618;1302;25204;-28
2022/08/10 14:28:24;;;;;;;1.70;0.30;;;;;;;;;;105562;1302;25223;-28
2022/08/10 14:30:53;;;;;;;1.10;0.60;;;;;;;;;;105526;1303;25223;-25
2022/08/10 14:33:18;;;;;;;8.60;0.90;;;;;;;;;;105575;1299;25197;-25
2022/08/10 14:35:45;;;;;;;1.80;0.40;;;;;;;;;;105520;1296;25200;-24